Kezdőlap
METAR-TAF:

METAR-TAF

Repülőterek :

Dumas, Texas, Amerikai Egyesült Államok

földrajzi szélesség: 35-51-28N, földrajzi hosszúság: 102-00-47W, magasság: 1129 m

Jelenlegi meteorológiai megfigyelések

A jelentés 21 perccel ezelõtt készült, 15:35 UTC
Déli szél 25 kt széllökések: 30 kt
Hőmérséklet 29°C
Páratartalom 48%
Légköri nyomás 1008 hPa
Látótávolság: 16.1 km
Derült ég

METAR: KDUX 181535Z AUTO 19025G30KT 10SM CLR 29/17 A2976 RMK AO2 T02860174

Idő: 10:56 (15:56 UTC)


TAF: hiányzik

Meteorológiai megfigyelések és előrejelzések több, mint 4000 repülőtéren (METAR és TAF jelentéseket).

A térképen piros és sárga pontok jelzik az elérhető meteorológiai állomásokat.

Mozgassa az egeret a pont fölött, hogy megjelenjen az állomás neve.

Azután kattintson az időjárási megfigyelések és előrejelzések megtekintéséhez.

A térkép megváltoztatása: kattintson a fekete keresztel jelölt zöld gombra ráközelítéshez, a vonallal jelölt zöld gombra távolításhoz, vagy a zöld nyilakra a szomszédos térképek eléréséhez.


METAR-TAF: